sensor_id;sensor_type;location;lat;lon;timestamp;pressure;altitude;pressure_sealevel;temperature;humidity
42411;BME280;28056;51.112;0.984;2022-09-12T00:00:12;100628.28;;;17.69;64.35
42411;BME280;28056;51.112;0.984;2022-09-12T00:04:53;100622.33;;;17.78;63.95
42411;BME280;28056;51.112;0.984;2022-09-12T00:07:21;100627.25;;;18.32;63.80
42411;BME280;28056;51.112;0.984;2022-09-12T00:09:48;100619.17;;;18.01;64.11
42411;BME280;28056;51.112;0.984;2022-09-12T00:12:15;100618.34;;;17.75;65.09
42411;BME280;28056;51.112;0.984;2022-09-12T00:14:42;100618.28;;;17.90;65.19
42411;BME280;28056;51.112;0.984;2022-09-12T00:17:10;100614.80;;;17.50;66.15
42411;BME280;28056;51.112;0.984;2022-09-12T00:19:37;100612.68;;;18.00;66.09
42411;BME280;28056;51.112;0.984;2022-09-12T00:22:05;100613.20;;;18.27;64.99
42411;BME280;28056;51.112;0.984;2022-09-12T00:24:32;100614.56;;;18.34;64.37
42411;BME280;28056;51.112;0.984;2022-09-12T00:27:00;100610.76;;;17.15;67.80
42411;BME280;28056;51.112;0.984;2022-09-12T00:29:28;100607.96;;;17.73;66.55
42411;BME280;28056;51.112;0.984;2022-09-12T00:31:55;100609.98;;;17.25;67.22
42411;BME280;28056;51.112;0.984;2022-09-12T00:34:23;100604.80;;;17.51;66.40
42411;BME280;28056;51.112;0.984;2022-09-12T00:36:50;100608.90;;;18.60;64.78
42411;BME280;28056;51.112;0.984;2022-09-12T00:39:17;100606.58;;;18.42;64.64
42411;BME280;28056;51.112;0.984;2022-09-12T00:41:44;100603.65;;;17.96;65.65
42411;BME280;28056;51.112;0.984;2022-09-12T00:44:48;100604.55;;;17.32;67.32
42411;BME280;28056;51.112;0.984;2022-09-12T00:47:19;100603.11;;;17.97;66.72
42411;BME280;28056;51.112;0.984;2022-09-12T00:49:51;100602.81;;;17.73;66.24
42411;BME280;28056;51.112;0.984;2022-09-12T00:52:24;100606.31;;;18.86;64.03
42411;BME280;28056;51.112;0.984;2022-09-12T00:54:58;100606.95;;;18.62;64.82
42411;BME280;28056;51.112;0.984;2022-09-12T00:57:30;100606.90;;;18.46;64.65
42411;BME280;28056;51.112;0.984;2022-09-12T01:00:02;100603.19;;;18.45;63.99
42411;BME280;28056;51.112;0.984;2022-09-12T01:02:32;100600.81;;;18.14;65.02
42411;BME280;28056;51.112;0.984;2022-09-12T01:05:00;100599.56;;;18.48;63.69
42411;BME280;28056;51.112;0.984;2022-09-12T01:07:28;100600.30;;;18.23;64.28
42411;BME280;28056;51.112;0.984;2022-09-12T01:09:55;100592.96;;;17.59;66.36
42411;BME280;28056;51.112;0.984;2022-09-12T01:12:22;100587.07;;;17.48;65.53
42411;BME280;28056;51.112;0.984;2022-09-12T01:14:50;100586.00;;;17.76;66.17
42411;BME280;28056;51.112;0.984;2022-09-12T01:17:17;100581.83;;;17.55;65.13
42411;BME280;28056;51.112;0.984;2022-09-12T01:20:39;100577.56;;;17.67;64.96
42411;BME280;28056;51.112;0.984;2022-09-12T01:23:32;100578.78;;;18.28;64.57
42411;BME280;28056;51.112;0.984;2022-09-12T01:26:21;100576.81;;;17.48;67.37
42411;BME280;28056;51.112;0.984;2022-09-12T01:29:07;100574.53;;;17.92;64.84
42411;BME280;28056;51.112;0.984;2022-09-12T01:31:45;100570.62;;;17.69;65.95
42411;BME280;28056;51.112;0.984;2022-09-12T01:34:20;100568.31;;;18.01;64.95
42411;BME280;28056;51.112;0.984;2022-09-12T01:36:58;100561.13;;;17.59;66.00
42411;BME280;28056;51.112;0.984;2022-09-12T01:39:35;100559.02;;;17.67;65.26
42411;BME280;28056;51.112;0.984;2022-09-12T01:42:12;100556.67;;;17.85;65.24
42411;BME280;28056;51.112;0.984;2022-09-12T01:44:49;100553.20;;;18.16;64.53
42411;BME280;28056;51.112;0.984;2022-09-12T01:47:24;100547.66;;;17.92;64.50
42411;BME280;28056;51.112;0.984;2022-09-12T01:49:58;100544.51;;;17.45;66.34
42411;BME280;28056;51.112;0.984;2022-09-12T01:52:30;100544.26;;;17.45;65.67
42411;BME280;28056;51.112;0.984;2022-09-12T01:55:04;100540.39;;;18.31;64.17
42411;BME280;28056;51.112;0.984;2022-09-12T01:57:36;100540.89;;;17.79;64.70
42411;BME280;28056;51.112;0.984;2022-09-12T02:00:08;100543.76;;;18.35;64.29
42411;BME280;28056;51.112;0.984;2022-09-12T02:02:39;100543.82;;;17.69;64.84
42411;BME280;28056;51.112;0.984;2022-09-12T02:05:11;100545.96;;;17.93;64.10
42411;BME280;28056;51.112;0.984;2022-09-12T02:07:44;100548.27;;;18.13;64.52
42411;BME280;28056;51.112;0.984;2022-09-12T02:10:16;100548.29;;;18.46;62.47
42411;BME280;28056;51.112;0.984;2022-09-12T02:12:48;100547.92;;;18.77;62.08
42411;BME280;28056;51.112;0.984;2022-09-12T02:15:19;100548.83;;;18.16;63.15
42411;BME280;28056;51.112;0.984;2022-09-12T02:17:49;100547.34;;;18.43;62.35
42411;BME280;28056;51.112;0.984;2022-09-12T02:20:22;100548.86;;;18.57;61.62
42411;BME280;28056;51.112;0.984;2022-09-12T02:22:52;100547.77;;;18.64;61.82
42411;BME280;28056;51.112;0.984;2022-09-12T02:25:23;100551.43;;;19.28;60.11
42411;BME280;28056;51.112;0.984;2022-09-12T02:27:55;100551.52;;;19.08;60.71
42411;BME280;28056;51.112;0.984;2022-09-12T02:30:26;100550.59;;;18.30;63.00
42411;BME280;28056;51.112;0.984;2022-09-12T02:33:00;100548.29;;;18.90;60.77
42411;BME280;28056;51.112;0.984;2022-09-12T02:35:38;100547.72;;;19.36;59.91
42411;BME280;28056;51.112;0.984;2022-09-12T02:38:13;100550.61;;;18.94;60.70
42411;BME280;28056;51.112;0.984;2022-09-12T02:40:43;100550.57;;;19.56;58.93
42411;BME280;28056;51.112;0.984;2022-09-12T02:43:11;100545.67;;;19.23;60.08
42411;BME280;28056;51.112;0.984;2022-09-12T02:45:38;100545.19;;;19.28;59.49
42411;BME280;28056;51.112;0.984;2022-09-12T02:48:10;100548.65;;;18.54;60.91
42411;BME280;28056;51.112;0.984;2022-09-12T02:50:39;100548.09;;;18.50;60.96
42411;BME280;28056;51.112;0.984;2022-09-12T02:53:07;100549.11;;;19.26;59.00
42411;BME280;28056;51.112;0.984;2022-09-12T02:55:36;100547.81;;;18.89;59.56
42411;BME280;28056;51.112;0.984;2022-09-12T02:58:07;100546.24;;;18.00;62.36
42411;BME280;28056;51.112;0.984;2022-09-12T03:00:43;100544.01;;;18.65;60.41
42411;BME280;28056;51.112;0.984;2022-09-12T03:03:25;100542.65;;;18.21;61.44
42411;BME280;28056;51.112;0.984;2022-09-12T03:06:00;100534.55;;;17.95;63.02
42411;BME280;28056;51.112;0.984;2022-09-12T03:08:45;100531.86;;;18.04;62.58
42411;BME280;28056;51.112;0.984;2022-09-12T03:11:28;100530.76;;;17.76;64.05
42411;BME280;28056;51.112;0.984;2022-09-12T03:14:07;100526.65;;;18.79;60.18
42411;BME280;28056;51.112;0.984;2022-09-12T03:16:43;100520.00;;;19.33;58.01
42411;BME280;28056;51.112;0.984;2022-09-12T03:19:19;100518.24;;;19.18;57.77
42411;BME280;28056;51.112;0.984;2022-09-12T03:21:57;100504.74;;;19.94;56.24
42411;BME280;28056;51.112;0.984;2022-09-12T03:24:32;100508.27;;;18.84;58.04
42411;BME280;28056;51.112;0.984;2022-09-12T03:27:06;100503.84;;;19.89;56.38
42411;BME280;28056;51.112;0.984;2022-09-12T03:29:38;100505.65;;;19.98;55.62
42411;BME280;28056;51.112;0.984;2022-09-12T03:32:06;100511.52;;;19.31;57.35
42411;BME280;28056;51.112;0.984;2022-09-12T03:34:34;100513.84;;;19.34;57.21
42411;BME280;28056;51.112;0.984;2022-09-12T03:37:02;100514.56;;;18.39;59.83
42411;BME280;28056;51.112;0.984;2022-09-12T03:39:29;100513.99;;;18.98;58.29
42411;BME280;28056;51.112;0.984;2022-09-12T03:41:56;100514.99;;;18.93;58.96
42411;BME280;28056;51.112;0.984;2022-09-12T03:44:24;100512.81;;;18.73;58.48
42411;BME280;28056;51.112;0.984;2022-09-12T03:46:51;100508.97;;;19.00;58.10
42411;BME280;28056;51.112;0.984;2022-09-12T03:49:19;100504.65;;;18.54;59.00
42411;BME280;28056;51.112;0.984;2022-09-12T03:51:46;100505.11;;;19.07;57.90
42411;BME280;28056;51.112;0.984;2022-09-12T03:54:14;100505.10;;;18.86;57.86
42411;BME280;28056;51.112;0.984;2022-09-12T03:56:41;100499.76;;;18.69;58.10
42411;BME280;28056;51.112;0.984;2022-09-12T03:59:09;100500.96;;;18.99;57.22
42411;BME280;28056;51.112;0.984;2022-09-12T04:01:36;100497.03;;;19.48;55.92
42411;BME280;28056;51.112;0.984;2022-09-12T04:04:04;100498.58;;;19.01;56.45
42411;BME280;28056;51.112;0.984;2022-09-12T04:06:32;100489.67;;;19.70;55.34
42411;BME280;28056;51.112;0.984;2022-09-12T04:08:59;100486.19;;;19.47;55.32
42411;BME280;28056;51.112;0.984;2022-09-12T04:11:28;100484.26;;;19.55;55.47
42411;BME280;28056;51.112;0.984;2022-09-12T04:13:55;100484.19;;;19.61;55.38
42411;BME280;28056;51.112;0.984;2022-09-12T04:16:23;100481.72;;;19.88;54.94
42411;BME280;28056;51.112;0.984;2022-09-12T04:18:50;100478.50;;;19.63;55.28
42411;BME280;28056;51.112;0.984;2022-09-12T04:21:19;100480.35;;;19.88;54.54
42411;BME280;28056;51.112;0.984;2022-09-12T04:23:47;100481.48;;;20.12;54.06
42411;BME280;28056;51.112;0.984;2022-09-12T04:26:16;100479.18;;;19.54;54.65
42411;BME280;28056;51.112;0.984;2022-09-12T04:28:43;100485.98;;;20.07;54.11
42411;BME280;28056;51.112;0.984;2022-09-12T04:31:14;100483.94;;;19.92;54.24
42411;BME280;28056;51.112;0.984;2022-09-12T04:33:41;100482.67;;;19.91;53.60
42411;BME280;28056;51.112;0.984;2022-09-12T04:36:11;100483.40;;;19.83;53.85
42411;BME280;28056;51.112;0.984;2022-09-12T04:38:39;100483.25;;;20.19;53.39
42411;BME280;28056;51.112;0.984;2022-09-12T04:41:10;100480.86;;;20.19;53.35
42411;BME280;28056;51.112;0.984;2022-09-12T04:43:38;100480.10;;;19.83;54.03
42411;BME280;28056;51.112;0.984;2022-09-12T04:46:06;100480.93;;;20.07;53.45
42411;BME280;28056;51.112;0.984;2022-09-12T04:48:34;100478.22;;;19.99;53.47
42411;BME280;28056;51.112;0.984;2022-09-12T04:51:11;100477.62;;;20.03;53.37
42411;BME280;28056;51.112;0.984;2022-09-12T04:53:39;100474.76;;;19.77;53.54
42411;BME280;28056;51.112;0.984;2022-09-12T04:56:08;100474.21;;;20.18;53.14
42411;BME280;28056;51.112;0.984;2022-09-12T04:58:37;100469.46;;;19.73;53.51
42411;BME280;28056;51.112;0.984;2022-09-12T05:01:06;100468.40;;;19.43;53.84
42411;BME280;28056;51.112;0.984;2022-09-12T05:03:34;100470.25;;;19.15;55.20
42411;BME280;28056;51.112;0.984;2022-09-12T05:06:02;100470.01;;;18.96;55.44
42411;BME280;28056;51.112;0.984;2022-09-12T05:08:29;100471.53;;;19.09;55.39
42411;BME280;28056;51.112;0.984;2022-09-12T05:11:01;100467.08;;;19.45;54.73
42411;BME280;28056;51.112;0.984;2022-09-12T05:13:29;100473.59;;;18.69;56.28
42411;BME280;28056;51.112;0.984;2022-09-12T05:15:57;100465.47;;;19.63;54.67
42411;BME280;28056;51.112;0.984;2022-09-12T05:18:26;100467.70;;;18.98;55.31
42411;BME280;28056;51.112;0.984;2022-09-12T05:20:53;100463.45;;;18.89;55.50
42411;BME280;28056;51.112;0.984;2022-09-12T05:23:20;100468.15;;;18.77;55.78
42411;BME280;28056;51.112;0.984;2022-09-12T05:25:48;100469.14;;;18.31;56.80
42411;BME280;28056;51.112;0.984;2022-09-12T05:28:15;100470.37;;;18.39;56.73
42411;BME280;28056;51.112;0.984;2022-09-12T05:30:43;100468.87;;;19.44;54.90
42411;BME280;28056;51.112;0.984;2022-09-12T05:33:11;100470.32;;;18.93;55.87
42411;BME280;28056;51.112;0.984;2022-09-12T05:35:39;100466.58;;;19.10;55.27
42411;BME280;28056;51.112;0.984;2022-09-12T05:38:07;100469.87;;;19.00;55.25
42411;BME280;28056;51.112;0.984;2022-09-12T05:40:34;100467.70;;;17.98;58.29
42411;BME280;28056;51.112;0.984;2022-09-12T05:43:02;100469.43;;;18.85;56.70
42411;BME280;28056;51.112;0.984;2022-09-12T05:45:29;100468.86;;;18.01;59.40
42411;BME280;28056;51.112;0.984;2022-09-12T05:47:57;100465.76;;;17.97;58.92
42411;BME280;28056;51.112;0.984;2022-09-12T05:50:24;100464.27;;;17.87;60.56
42411;BME280;28056;51.112;0.984;2022-09-12T05:52:52;100463.08;;;17.43;61.77
42411;BME280;28056;51.112;0.984;2022-09-12T05:55:20;100463.12;;;17.46;61.26
42411;BME280;28056;51.112;0.984;2022-09-12T05:57:48;100464.68;;;17.88;60.54
42411;BME280;28056;51.112;0.984;2022-09-12T06:00:16;100465.80;;;18.03;60.60
42411;BME280;28056;51.112;0.984;2022-09-12T06:02:44;100467.12;;;16.81;62.20
42411;BME280;28056;51.112;0.984;2022-09-12T06:05:17;100469.41;;;17.95;61.37
42411;BME280;28056;51.112;0.984;2022-09-12T06:07:45;100471.77;;;18.06;61.27
42411;BME280;28056;51.112;0.984;2022-09-12T06:10:13;100475.82;;;17.82;61.14
42411;BME280;28056;51.112;0.984;2022-09-12T06:12:40;100478.79;;;18.20;59.94
42411;BME280;28056;51.112;0.984;2022-09-12T06:15:09;100476.08;;;17.76;61.23
42411;BME280;28056;51.112;0.984;2022-09-12T06:17:36;100476.26;;;17.54;62.54
42411;BME280;28056;51.112;0.984;2022-09-12T06:20:05;100477.78;;;17.73;62.57
42411;BME280;28056;51.112;0.984;2022-09-12T06:22:33;100481.38;;;17.84;63.10
42411;BME280;28056;51.112;0.984;2022-09-12T06:25:00;100479.23;;;17.82;63.18
42411;BME280;28056;51.112;0.984;2022-09-12T06:27:27;100477.96;;;17.84;63.14
42411;BME280;28056;51.112;0.984;2022-09-12T06:29:55;100480.87;;;17.77;62.92
42411;BME280;28056;51.112;0.984;2022-09-12T06:32:22;100478.02;;;17.28;64.29
42411;BME280;28056;51.112;0.984;2022-09-12T06:34:49;100475.57;;;17.92;63.55
42411;BME280;28056;51.112;0.984;2022-09-12T06:37:17;100479.73;;;18.48;62.69
42411;BME280;28056;51.112;0.984;2022-09-12T06:39:44;100484.27;;;17.95;63.82
42411;BME280;28056;51.112;0.984;2022-09-12T06:42:12;100490.19;;;18.41;63.18
42411;BME280;28056;51.112;0.984;2022-09-12T06:44:40;100487.56;;;17.94;63.40
42411;BME280;28056;51.112;0.984;2022-09-12T06:47:07;100486.62;;;17.78;64.13
42411;BME280;28056;51.112;0.984;2022-09-12T06:49:35;100485.30;;;17.91;64.38
42411;BME280;28056;51.112;0.984;2022-09-12T06:52:03;100488.11;;;17.98;63.86
42411;BME280;28056;51.112;0.984;2022-09-12T06:54:31;100489.40;;;17.82;64.07
42411;BME280;28056;51.112;0.984;2022-09-12T06:56:58;100484.47;;;18.32;63.46
42411;BME280;28056;51.112;0.984;2022-09-12T06:59:26;100481.35;;;18.12;64.73
42411;BME280;28056;51.112;0.984;2022-09-12T07:01:53;100482.54;;;17.97;64.64
42411;BME280;28056;51.112;0.984;2022-09-12T07:04:21;100480.94;;;19.35;61.41
42411;BME280;28056;51.112;0.984;2022-09-12T07:06:48;100476.27;;;19.52;60.34
42411;BME280;28056;51.112;0.984;2022-09-12T07:09:16;100483.50;;;18.67;62.25
42411;BME280;28056;51.112;0.984;2022-09-12T07:11:44;100486.55;;;17.89;64.34
42411;BME280;28056;51.112;0.984;2022-09-12T07:14:12;100489.07;;;18.37;63.11
42411;BME280;28056;51.112;0.984;2022-09-12T07:16:41;100487.62;;;19.00;62.76
42411;BME280;28056;51.112;0.984;2022-09-12T07:19:09;100486.54;;;19.21;62.32
42411;BME280;28056;51.112;0.984;2022-09-12T07:21:38;100486.25;;;19.01;62.66
42411;BME280;28056;51.112;0.984;2022-09-12T07:24:05;100474.81;;;19.25;62.57
42411;BME280;28056;51.112;0.984;2022-09-12T07:26:33;100474.52;;;18.77;63.36
42411;BME280;28056;51.112;0.984;2022-09-12T07:29:01;100465.10;;;19.80;60.55
42411;BME280;28056;51.112;0.984;2022-09-12T07:31:29;100461.60;;;19.08;61.55
42411;BME280;28056;51.112;0.984;2022-09-12T07:33:56;100466.59;;;18.71;62.81
42411;BME280;28056;51.112;0.984;2022-09-12T07:36:24;100463.78;;;18.78;63.05
42411;BME280;28056;51.112;0.984;2022-09-12T07:38:56;100458.95;;;19.91;60.95
42411;BME280;28056;51.112;0.984;2022-09-12T07:41:25;100458.71;;;19.39;60.85
42411;BME280;28056;51.112;0.984;2022-09-12T07:43:53;100457.79;;;19.78;60.50
42411;BME280;28056;51.112;0.984;2022-09-12T07:46:22;100455.49;;;19.86;61.13
42411;BME280;28056;51.112;0.984;2022-09-12T07:48:50;100460.82;;;20.06;60.32
42411;BME280;28056;51.112;0.984;2022-09-12T07:51:18;100458.96;;;19.67;61.40
42411;BME280;28056;51.112;0.984;2022-09-12T07:53:47;100458.33;;;19.79;61.76
42411;BME280;28056;51.112;0.984;2022-09-12T07:56:15;100459.01;;;18.85;63.26
42411;BME280;28056;51.112;0.984;2022-09-12T07:58:43;100461.74;;;19.31;62.30
42411;BME280;28056;51.112;0.984;2022-09-12T08:01:12;100469.66;;;19.22;63.98
42411;BME280;28056;51.112;0.984;2022-09-12T08:03:41;100470.45;;;19.61;61.98
42411;BME280;28056;51.112;0.984;2022-09-12T08:06:11;100472.06;;;19.19;63.82
42411;BME280;28056;51.112;0.984;2022-09-12T08:08:39;100475.82;;;19.03;64.84
42411;BME280;28056;51.112;0.984;2022-09-12T08:11:08;100470.43;;;19.48;62.80
42411;BME280;28056;51.112;0.984;2022-09-12T08:13:37;100472.05;;;19.64;62.72
42411;BME280;28056;51.112;0.984;2022-09-12T08:16:07;100467.82;;;19.57;62.60
42411;BME280;28056;51.112;0.984;2022-09-12T08:18:35;100463.51;;;20.03;60.97
42411;BME280;28056;51.112;0.984;2022-09-12T08:21:06;100464.41;;;20.25;59.59
42411;BME280;28056;51.112;0.984;2022-09-12T08:23:34;100466.29;;;19.94;59.68
42411;BME280;28056;51.112;0.984;2022-09-12T08:26:03;100471.52;;;20.62;58.88
42411;BME280;28056;51.112;0.984;2022-09-12T08:28:31;100470.80;;;19.92;60.13
42411;BME280;28056;51.112;0.984;2022-09-12T08:31:00;100468.56;;;19.47;60.60
42411;BME280;28056;51.112;0.984;2022-09-12T08:33:28;100465.32;;;19.58;60.40
42411;BME280;28056;51.112;0.984;2022-09-12T08:36:02;100468.34;;;19.81;59.07
42411;BME280;28056;51.112;0.984;2022-09-12T08:38:30;100467.30;;;20.74;57.94
42411;BME280;28056;51.112;0.984;2022-09-12T08:41:03;100463.83;;;20.01;58.55
42411;BME280;28056;51.112;0.984;2022-09-12T08:43:47;100466.50;;;20.23;58.42
42411;BME280;28056;51.112;0.984;2022-09-12T08:46:19;100463.54;;;19.85;59.44
42411;BME280;28056;51.112;0.984;2022-09-12T08:48:49;100465.06;;;20.08;59.25
42411;BME280;28056;51.112;0.984;2022-09-12T08:51:19;100468.62;;;21.14;56.47
42411;BME280;28056;51.112;0.984;2022-09-12T08:53:49;100471.48;;;20.62;57.81
42411;BME280;28056;51.112;0.984;2022-09-12T08:56:20;100473.03;;;20.76;56.75
42411;BME280;28056;51.112;0.984;2022-09-12T08:58:47;100470.13;;;20.06;59.03
42411;BME280;28056;51.112;0.984;2022-09-12T09:01:20;100473.00;;;20.35;57.83
42411;BME280;28056;51.112;0.984;2022-09-12T09:04:03;100473.43;;;20.39;57.89
42411;BME280;28056;51.112;0.984;2022-09-12T09:06:50;100472.26;;;20.41;58.05
42411;BME280;28056;51.112;0.984;2022-09-12T09:09:29;100479.07;;;21.36;56.05
42411;BME280;28056;51.112;0.984;2022-09-12T09:12:05;100479.55;;;20.93;57.30
42411;BME280;28056;51.112;0.984;2022-09-12T09:14:57;100480.03;;;20.84;58.06
42411;BME280;28056;51.112;0.984;2022-09-12T09:17:36;100473.33;;;22.03;55.08
42411;BME280;28056;51.112;0.984;2022-09-12T09:20:12;100462.05;;;21.18;55.98
42411;BME280;28056;51.112;0.984;2022-09-12T09:22:47;100461.66;;;21.17;55.26
42411;BME280;28056;51.112;0.984;2022-09-12T09:25:19;100466.21;;;21.29;57.48
42411;BME280;28056;51.112;0.984;2022-09-12T09:27:52;100465.58;;;21.30;54.35
42411;BME280;28056;51.112;0.984;2022-09-12T09:30:23;100463.87;;;22.11;52.74
42411;BME280;28056;51.112;0.984;2022-09-12T09:32:53;100461.83;;;21.50;54.58
42411;BME280;28056;51.112;0.984;2022-09-12T09:35:30;100466.65;;;22.91;51.62
42411;BME280;28056;51.112;0.984;2022-09-12T09:38:17;100464.97;;;22.04;54.02
42411;BME280;28056;51.112;0.984;2022-09-12T09:40:55;100468.88;;;21.00;55.20
42411;BME280;28056;51.112;0.984;2022-09-12T09:43:26;100473.43;;;22.36;52.04
42411;BME280;28056;51.112;0.984;2022-09-12T09:45:53;100473.33;;;21.79;52.77
42411;BME280;28056;51.112;0.984;2022-09-12T09:48:26;100467.57;;;21.91;52.47
42411;BME280;28056;51.112;0.984;2022-09-12T09:50:58;100457.75;;;20.85;54.06
42411;BME280;28056;51.112;0.984;2022-09-12T09:53:32;100455.39;;;22.63;52.18
42411;BME280;28056;51.112;0.984;2022-09-12T09:56:04;100455.90;;;22.18;52.10
42411;BME280;28056;51.112;0.984;2022-09-12T09:58:34;100455.92;;;22.26;52.01
42411;BME280;28056;51.112;0.984;2022-09-12T10:01:04;100454.51;;;22.58;51.96
42411;BME280;28056;51.112;0.984;2022-09-12T10:03:33;100451.36;;;23.13;52.43
42411;BME280;28056;51.112;0.984;2022-09-12T10:06:07;100443.17;;;23.12;51.54
42411;BME280;28056;51.112;0.984;2022-09-12T10:08:49;100434.35;;;22.99;49.72
42411;BME280;28056;51.112;0.984;2022-09-12T10:11:19;100438.02;;;23.17;49.61
42411;BME280;28056;51.112;0.984;2022-09-12T10:13:54;100442.76;;;23.80;48.83
42411;BME280;28056;51.112;0.984;2022-09-12T10:16:24;100442.05;;;22.88;51.18
42411;BME280;28056;51.112;0.984;2022-09-12T10:18:53;100437.17;;;22.95;51.11
42411;BME280;28056;51.112;0.984;2022-09-12T10:21:27;100431.31;;;23.51;48.66
42411;BME280;28056;51.112;0.984;2022-09-12T10:24:12;100434.09;;;23.20;49.30
42411;BME280;28056;51.112;0.984;2022-09-12T10:26:47;100424.45;;;23.66;47.80
42411;BME280;28056;51.112;0.984;2022-09-12T10:29:17;100416.85;;;23.58;47.23
42411;BME280;28056;51.112;0.984;2022-09-12T10:31:50;100406.87;;;23.38;47.98
42411;BME280;28056;51.112;0.984;2022-09-12T10:34:23;100403.15;;;24.19;46.79
42411;BME280;28056;51.112;0.984;2022-09-12T10:36:53;100406.84;;;22.90;49.27
42411;BME280;28056;51.112;0.984;2022-09-12T10:39:25;100402.51;;;23.83;48.07
42411;BME280;28056;51.112;0.984;2022-09-12T10:41:53;100402.01;;;22.75;49.53
42411;BME280;28056;51.112;0.984;2022-09-12T10:44:25;100401.27;;;23.50;48.70
42411;BME280;28056;51.112;0.984;2022-09-12T10:46:53;100405.14;;;22.86;49.61
42411;BME280;28056;51.112;0.984;2022-09-12T10:49:25;100403.45;;;23.34;49.16
42411;BME280;28056;51.112;0.984;2022-09-12T10:51:53;100400.19;;;24.14;46.52
42411;BME280;28056;51.112;0.984;2022-09-12T10:54:24;100396.16;;;23.06;49.01
42411;BME280;28056;51.112;0.984;2022-09-12T10:57:05;100395.89;;;24.59;46.75
42411;BME280;28056;51.112;0.984;2022-09-12T10:59:50;100391.09;;;25.62;44.38
42411;BME280;28056;51.112;0.984;2022-09-12T11:02:27;100390.52;;;24.79;45.33
42411;BME280;28056;51.112;0.984;2022-09-12T11:05:02;100390.13;;;24.17;45.74
42411;BME280;28056;51.112;0.984;2022-09-12T11:07:41;100385.39;;;24.36;45.96
42411;BME280;28056;51.112;0.984;2022-09-12T11:10:19;100376.71;;;24.43;45.81
42411;BME280;28056;51.112;0.984;2022-09-12T11:12:54;100370.28;;;24.56;47.08
42411;BME280;28056;51.112;0.984;2022-09-12T11:15:40;100369.92;;;24.67;44.37
42411;BME280;28056;51.112;0.984;2022-09-12T11:18:17;100367.47;;;25.53;43.40
42411;BME280;28056;51.112;0.984;2022-09-12T11:20:58;100374.38;;;25.29;45.39
42411;BME280;28056;51.112;0.984;2022-09-12T11:23:45;100380.78;;;26.82;40.69
42411;BME280;28056;51.112;0.984;2022-09-12T11:26:27;100387.80;;;26.92;41.64
42411;BME280;28056;51.112;0.984;2022-09-12T11:29:06;100384.57;;;26.27;40.76
42411;BME280;28056;51.112;0.984;2022-09-12T11:31:55;100375.04;;;26.26;41.49
42411;BME280;28056;51.112;0.984;2022-09-12T11:34:35;100367.13;;;26.96;40.23
42411;BME280;28056;51.112;0.984;2022-09-12T11:37:26;100374.15;;;26.28;42.52
42411;BME280;28056;51.112;0.984;2022-09-12T11:40:01;100367.69;;;25.36;41.12
42411;BME280;28056;51.112;0.984;2022-09-12T11:42:35;100365.03;;;25.56;41.78
42411;BME280;28056;51.112;0.984;2022-09-12T11:45:14;100366.81;;;24.48;44.65
42411;BME280;28056;51.112;0.984;2022-09-12T11:47:47;100368.18;;;25.86;42.73
42411;BME280;28056;51.112;0.984;2022-09-12T11:50:20;100380.25;;;26.02;41.77
42411;BME280;28056;51.112;0.984;2022-09-12T11:52:50;100379.74;;;25.63;41.64
42411;BME280;28056;51.112;0.984;2022-09-12T11:55:21;100382.08;;;23.88;44.88
42411;BME280;28056;51.112;0.984;2022-09-12T11:57:53;100378.45;;;24.96;43.65
42411;BME280;28056;51.112;0.984;2022-09-12T12:00:23;100378.76;;;24.41;44.75
42411;BME280;28056;51.112;0.984;2022-09-12T12:02:57;100382.23;;;25.52;43.88
42411;BME280;28056;51.112;0.984;2022-09-12T12:05:34;100383.91;;;25.65;42.72
42411;BME280;28056;51.112;0.984;2022-09-12T12:08:06;100387.67;;;25.81;43.34
42411;BME280;28056;51.112;0.984;2022-09-12T12:10:36;100388.51;;;24.92;43.81
42411;BME280;28056;51.112;0.984;2022-09-12T12:13:13;100390.43;;;25.09;43.07
42411;BME280;28056;51.112;0.984;2022-09-12T12:15:45;100389.82;;;25.02;43.97
42411;BME280;28056;51.112;0.984;2022-09-12T12:18:17;100386.24;;;24.87;44.80
42411;BME280;28056;51.112;0.984;2022-09-12T12:20:45;100384.81;;;24.84;44.27
42411;BME280;28056;51.112;0.984;2022-09-12T12:23:25;100386.98;;;24.28;46.20
42411;BME280;28056;51.112;0.984;2022-09-12T12:25:55;100381.43;;;24.73;43.74
42411;BME280;28056;51.112;0.984;2022-09-12T12:28:57;100381.97;;;22.61;48.12
42411;BME280;28056;51.112;0.984;2022-09-12T12:31:25;100376.95;;;23.57;45.91
42411;BME280;28056;51.112;0.984;2022-09-12T12:34:00;100370.72;;;22.89;47.70
42411;BME280;28056;51.112;0.984;2022-09-12T12:36:32;100368.70;;;23.02;47.61
42411;BME280;28056;51.112;0.984;2022-09-12T12:39:56;100372.31;;;24.00;46.74
42411;BME280;28056;51.112;0.984;2022-09-12T12:43:00;100375.06;;;22.75;47.28
42411;BME280;28056;51.112;0.984;2022-09-12T12:46:05;100370.75;;;24.93;46.50
42411;BME280;28056;51.112;0.984;2022-09-12T12:48:55;100364.25;;;25.21;44.44
42411;BME280;28056;51.112;0.984;2022-09-12T12:51:34;100363.00;;;25.83;43.33
42411;BME280;28056;51.112;0.984;2022-09-12T12:54:04;100357.61;;;25.58;45.76
42411;BME280;28056;51.112;0.984;2022-09-12T12:56:36;100357.95;;;25.65;44.52
42411;BME280;28056;51.112;0.984;2022-09-12T12:59:16;100350.01;;;25.48;43.48
42411;BME280;28056;51.112;0.984;2022-09-12T13:01:50;100349.68;;;26.91;40.11
42411;BME280;28056;51.112;0.984;2022-09-12T13:04:22;100341.58;;;27.77;38.80
42411;BME280;28056;51.112;0.984;2022-09-12T13:06:57;100330.54;;;28.09;37.29
42411;BME280;28056;51.112;0.984;2022-09-12T13:09:31;100327.09;;;27.53;36.68
42411;BME280;28056;51.112;0.984;2022-09-12T13:12:03;100325.26;;;28.18;35.07
42411;BME280;28056;51.112;0.984;2022-09-12T13:14:46;100320.76;;;27.69;35.67
42411;BME280;28056;51.112;0.984;2022-09-12T13:17:20;100332.03;;;26.59;35.12